Flight Track Log - Related Links

Times and Time Zones

All times are in EDT time to prevent confusion due to time zone crossing. See the N50KC flight status page for this flight to view local times or setup timezone preferences in your user account.

Time Position Orientation Groundspeed Altitude Reporting Facility
EDT Latitude Longitude Course Direction KTS MPH feet Rate Location/Type
Sun 05:08:44 PM 41.4833 -73.1833 279° West 219 252 3,700  Level New York TRACON
Sun 05:09:46 PM 41.4500 -73.1186 124° Southeast 273 314 5,000 873 Climbing Boston Center
Sun 05:10:34 PM 41.4961 -73.1053 12° North 241 277 5,300 444 Climbing Boston Center
Sun 05:10:40 PM 41.5086 -73.1025 North 260 299 5,400 2,073 Climbing Boston Center
Sun 05:11:29 PM 41.5606 -73.1031 360° North 242 278 7,200 2,075 Climbing Boston Center
Sun 05:12:53 PM 41.6628 -73.0819 North 295 339 10,000 1,804 Climbing Boston Center
Sun 05:13:52 PM 41.7442 -73.0800 North 310 357 11,500 2,800 Climbing Boston Center
Sun 05:14:00 PM 41.5547 -73.8010 279° West  Level Estimated
Sun 05:14:53 PM 41.8525 -73.1033 351° North 346 398 15,600  Level Boston Center
Sun 05:15:54 PM 41.9461 -73.1239 351° North 374 430 18,700 3,407 Climbing Boston Center
Sun 05:16:51 PM 42.0625 -73.1531 349° North 374 430 22,300 3,305 Climbing Boston Center
Sun 05:17:52 PM 42.1539 -73.2356 326° Northwest 379 436 25,200 2,727 Climbing Boston Center
Sun 05:18:52 PM 42.2089 -73.3706 299° West 369 425 27,800 2,529 Climbing Boston Center
Sun 05:19:53 PM 42.2619 -73.5172 296° West 406 467 30,300 2,529 Climbing Boston Center
Sun 05:20:53 PM 42.3125 -73.6558 296° West 414 476 32,900 2,600 Climbing Boston Center
Sun 05:21:53 PM 42.3589 -73.8083 292° West 426 490 35,500 2,644 Climbing Boston Center
Sun 05:22:51 PM 42.4072 -73.9444 296° West 421 484 38,100 1,881 Climbing Boston Center
Sun 05:23:51 PM 42.4531 -74.0806 295° West 402 463 39,200 1,091 Climbing Boston Center
Sun 05:24:52 PM 42.5033 -74.2114 298° West 402 463 40,300 1,041 Climbing Boston Center
Sun 05:25:52 PM 42.5981 -74.2761 333° Northwest 379 436 41,300 1,000 Climbing Boston Center
Sun 05:26:52 PM 42.7164 -74.3053 350° North 380 437 42,300 843 Climbing Boston Center
Sun 05:27:53 PM 42.8306 -74.3342 349° North 398 458 43,000 347 Climbing Boston Center
Sun 05:28:53 PM 42.9511 -74.3606 268° West 422 486 43,000  Level Boston Center
Sun 05:29:00 PM 42.8258 -74.4945 268° West  Level Estimated
Sun 05:29:51 PM 43.0717 -74.3842 352° North 433 498 43,000  Level Boston Center
Sun 05:30:51 PM 43.1900 -74.4136 350° North 433 498 43,000 -50 Level Boston Center
Sun 05:31:52 PM 43.2778 -74.5078 322° Northwest 395 455 42,900  Descending Boston Center
Sun 05:32:54 PM 43.3103 -74.6600 286° West 382 440 43,000 50 Climbing Boston Center
Sun 05:33:51 PM 43.2967 -74.8250 264° West 381 438 43,000  Level Boston Center
Sun 05:34:51 PM 43.2806 -74.9897 262° West 410 472 43,000  Level Boston Center
Sun 05:35:52 PM 43.2714 -75.1236 265° West 430 495 43,000  Level Boston Center
Sun 05:36:52 PM 43.2564 -75.3053 264° West 442 509 43,000  Level Boston Center
Sun 05:37:53 PM 43.2414 -75.4814 263° West 455 524 43,000  Level Boston Center
Sun 05:38:53 PM 43.2286 -75.6433 264° West 449 517 43,000  Level Boston Center
Sun 05:39:53 PM 43.2133 -75.8106 263° West 444 511 43,000  Level Boston Center
Sun 05:41:51 PM 43.1836 -76.1439 263° West 440 506 43,000  Level Cleveland Center
Sun 05:42:51 PM 43.1669 -76.3103 262° West 445 512 43,000  Level Cleveland Center
Sun 05:43:51 PM 43.1525 -76.4819 263° West 450 518 43,000  Level Cleveland Center
Sun 05:44:51 PM 43.1372 -76.6453 263° West 450 518 43,000  Level Cleveland Center
Sun 05:45:51 PM 43.1219 -76.8086 263° West 445 512 43,000  Level Cleveland Center
Sun 05:46:51 PM 43.1064 -76.9772 263° West 450 518 43,000  Level Cleveland Center
Sun 05:47:51 PM 43.0864 -77.1461 261° West 450 518 43,000  Level Cleveland Center
Sun 05:48:51 PM 43.0747 -77.3117 265° West 450 518 43,000  Level Cleveland Center
Sun 05:49:51 PM 43.0564 -77.4803 262° West 450 518 43,000  Level Cleveland Center
Sun 05:50:51 PM 43.0378 -77.6489 261° West 450 518 43,000  Level Cleveland Center
Sun 05:51:51 PM 43.0211 -77.8172 262° West 450 518 43,000  Level Cleveland Center
Sun 05:52:51 PM 43.0022 -77.9856 261° West 450 518 43,000  Level Cleveland Center
Sun 05:53:51 PM 42.9828 -78.1567 261° West 450 518 43,000  Level Cleveland Center
Sun 05:54:51 PM 42.9639 -78.3447 262° West 457 526 43,000  Level Cleveland Center
Sun 05:55:51 PM 42.9461 -78.5128 262° West 457 526 43,000  Level Cleveland Center
Sun 05:56:51 PM 42.9261 -78.6806 261° West 457 526 43,000  Level Cleveland Center
Sun 05:57:51 PM 42.9014 -78.8458 259° West 451 519 43,000 -450 Level Cleveland Center
Sun 05:58:51 PM 42.8789 -79.0081 259° West 451 519 42,100 -1,750 Descending Cleveland Center
Sun 05:59:51 PM 42.8558 -79.1700 259° West 451 519 39,500 -2,600 Descending Cleveland Center
Sun 06:00:51 PM 42.8286 -79.3347 257° West 446 513 36,900 -2,550 Descending Cleveland Center
Sun 06:01:51 PM 42.8072 -79.4964 260° West 446 513 34,400 -2,300 Descending Cleveland Center
Sun 06:02:51 PM 42.7839 -79.6639 259° West 446 513 32,300 -2,050 Descending Cleveland Center
Sun 06:03:51 PM 42.7600 -79.8253 259° West 451 519 30,300 -1,800 Descending Cleveland Center
Sun 06:04:51 PM 42.7503 -79.9528 264° West 446 513 28,700 -1,150 Descending Cleveland Center
Sun 06:05:51 PM 42.7386 -80.1422 265° West 435 501 28,000 -350 Descending Cleveland Center
Sun 06:06:51 PM 42.7308 -80.2978 266° West 420 483 28,000  Level Cleveland Center
Sun 06:07:51 PM 42.7247 -80.4531 267° West 420 483 28,000  Level Cleveland Center
Sun 06:08:51 PM 42.7186 -80.6142 267° West 431 496 28,000 -200 Level Cleveland Center
Sun 06:09:51 PM 42.7122 -80.7697 267° West 426 490 27,600 -950 Descending Cleveland Center
Sun 06:10:51 PM 42.7014 -80.9250 265° West 416 479 26,100 -1,500 Descending Cleveland Center
Sun 06:11:51 PM 42.6864 -81.0775 262° West 410 472 24,600 -1,050 Descending Cleveland Center
Sun 06:12:51 PM 42.6689 -81.2269 261° West 404 465 24,000 -300 Descending Cleveland Center
Sun 06:13:51 PM 42.6514 -81.3736 261° West 409 471 24,000  Level Cleveland Center
Sun 06:14:51 PM 42.6356 -81.5144 261° West 414 476 24,000  Level Cleveland Center
Sun 06:15:51 PM 42.6156 -81.6722 260° West 414 476 24,000 -950 Level Cleveland Center
Sun 06:16:51 PM 42.5975 -81.8186 261° West 412 474 22,100 -2,000 Descending Cleveland Center
Sun 06:17:51 PM 42.5789 -81.9675 260° West 405 466 20,000 -2,050 Descending Cleveland Center
Sun 06:18:51 PM 42.5625 -82.1083 261° West 400 460 18,000 -2,093 Descending Cleveland Center
Sun 06:19:17 PM 42.5533 -82.1814 260° West 379 436 17,000 -2,000 Descending Cleveland Center
Sun 06:19:51 PM 42.5461 -82.2458 261° West 389 448 16,000 -2,073 Descending Cleveland Center
Sun 06:20:12 PM 42.5367 -82.3161 260° West 366 421 15,100 -1,900 Descending Cleveland Center
Sun 06:20:51 PM 42.5275 -82.3806 259° West 377 434 14,100 -1,869 Descending Cleveland Center
Sun 06:21:13 PM 42.5222 -82.4481 264° West 355 409 13,200 -1,800 Descending Cleveland Center
Sun 06:21:51 PM 42.5128 -82.5097 258° West 367 422 12,300 -1,180 Descending Cleveland Center
Sun 06:22:14 PM 42.4972 -82.5742 252° West 348 400 12,000 -300 Descending Cleveland Center
Sun 06:22:51 PM 42.4775 -82.6297 244° Southwest 354 407 12,000  Level Cleveland Center
Sun 06:23:16 PM 42.4553 -82.6939 245° Southwest 349 402 12,000  Level Cleveland Center
Sun 06:23:51 PM 42.4356 -82.7494 244° Southwest 354 407 12,000  Level Cleveland Center
Sun 06:24:11 PM 42.4178 -82.8050 247° West 350 403 12,000  Level Cleveland Center
Sun 06:24:51 PM 42.3939 -82.8606 240° Southwest 349 402 12,000  Level Cleveland Center
Sun 06:25:12 PM 42.3825 -82.9050 251° West 262 302 12,000  Level Cleveland Center
Sun 06:25:51 PM 42.3631 -82.9464 238° Southwest 307 353 12,000  Level Cleveland Center
Sun 06:26:19 PM 42.3472 -82.9964 247° West 243 280 12,000  Level Cleveland Center
Sun 06:26:51 PM 42.3342 -83.0297 242° Southwest 268 308 12,000  Level Cleveland Center
Sun 06:27:21 PM 42.3164 -83.0794 244° Southwest 243 280 12,000  Level Cleveland Center
Sun 06:27:51 PM 42.3053 -83.1100 244° Southwest 253 291 12,000  Level Cleveland Center
Sun 06:28:22 PM 42.2853 -83.1653 244° Southwest 244 281 12,000  Level Cleveland Center
Sun 06:28:51 PM 42.2619 -83.1783 202° Southwest 242 278 12,000 -393 Level Cleveland Center
Sun 06:29:23 PM 42.2197 -83.2047 205° Southwest 248 285 11,600 -1,277 Descending Cleveland Center
Sun 06:30:25 PM 42.1564 -83.2442 205° Southwest 253 291 10,000 -1,512 Descending Cleveland Center
Sun 06:31:26 PM 42.0908 -83.2806 202° Southwest 248 285 8,500 -1,475 Descending Cleveland Center
Sun 06:32:27 PM 42.0333 -83.3342 215° Southwest 242 278 7,000 -1,561 Descending Cleveland Center
Sun 06:33:29 PM 41.9819 -83.3878 218° Southwest 237 273 5,300 -1,463 Descending Cleveland Center
Sun 06:34:30 PM 41.9306 -83.4386 216° Southwest 220 253 4,000 -639 Descending Cleveland Center
Sun 06:35:31 PM 41.9247 -83.5025 263° West 183 211 4,000  Level Cleveland Center
Sun 06:36:33 PM 41.9725 -83.5131 351° North 180 207 4,000  Level Cleveland Center
Sun 06:37:40 PM 42.0233 -83.4817 25° Northeast 176 203 4,000 -234 Level Cleveland Center
Sun 06:38:41 PM 42.0658 -83.4475 31° Northeast 174 200 3,500 -689 Descending Cleveland Center
Sun 06:39:42 PM 42.1106 -83.4158 28° Northeast 173 199 2,600 -815 Descending Cleveland Center
Sun 06:41:45 PM 42.1783 -83.3656 29° Northeast 123 142 1,000 -780 Descending Cleveland Center

Login

Don't have an account? Register now (free) for customized features, flight alerts, and more!